createdAt,value
2019-01-10T00:00:50.728Z,10.30
2019-01-10T00:03:18.168Z,11.85
2019-01-10T00:05:45.552Z,13.55
2019-01-10T00:08:12.892Z,10.23
2019-01-10T00:10:40.338Z,9.75
2019-01-10T00:13:07.722Z,10.45
2019-01-10T00:15:35.218Z,14.95
2019-01-10T00:18:02.572Z,14.68
2019-01-10T00:20:29.992Z,9.95
2019-01-10T00:22:57.596Z,11.57
2019-01-10T00:25:25.030Z,12.80
2019-01-10T00:27:52.379Z,11.73
2019-01-10T00:30:19.971Z,9.05
2019-01-10T00:32:47.491Z,7.78
2019-01-10T00:35:15.095Z,9.13
2019-01-10T00:37:42.524Z,11.05
2019-01-10T00:40:11.560Z,11.53
2019-01-10T00:42:38.995Z,8.53
2019-01-10T00:45:09.037Z,9.50
2019-01-10T00:47:36.462Z,9.50
2019-01-10T00:50:05.078Z,9.25
2019-01-10T00:52:32.525Z,12.23
2019-01-10T00:54:59.940Z,10.78
2019-01-10T00:57:27.307Z,12.73
2019-01-10T00:59:54.662Z,14.55
2019-01-10T01:02:22.160Z,8.98
2019-01-10T01:04:49.524Z,9.75
2019-01-10T01:07:16.948Z,8.58
2019-01-10T01:09:44.276Z,9.43
2019-01-10T01:12:11.791Z,8.65
2019-01-10T01:14:39.277Z,8.93
2019-01-10T01:17:06.732Z,11.38
2019-01-10T01:19:34.087Z,9.80
2019-01-10T01:22:01.661Z,9.40
2019-01-10T01:24:29.024Z,8.60
2019-01-10T01:26:56.418Z,7.92
2019-01-10T01:29:23.794Z,13.05
2019-01-10T01:31:51.300Z,11.43
2019-01-10T01:34:18.657Z,9.40
2019-01-10T01:36:46.213Z,11.22
2019-01-10T01:39:13.793Z,13.40
2019-01-10T01:41:41.132Z,11.22
2019-01-10T01:44:08.492Z,9.38
2019-01-10T01:46:36.078Z,9.40
2019-01-10T01:49:03.480Z,9.50
2019-01-10T01:51:30.804Z,10.50
2019-01-10T01:53:58.306Z,10.60
2019-01-10T01:56:25.639Z,13.45
2019-01-10T01:58:53.055Z,8.48
2019-01-10T02:01:20.447Z,10.63
2019-01-10T02:03:47.852Z,10.05
2019-01-10T02:06:15.337Z,10.38
2019-01-10T02:08:42.907Z,14.53
2019-01-10T02:11:10.360Z,8.90
2019-01-10T02:13:37.812Z,10.23
2019-01-10T02:16:05.156Z,10.43
2019-01-10T02:18:32.676Z,10.43
2019-01-10T02:21:00.062Z,16.07
2019-01-10T02:23:27.545Z,10.50
2019-01-10T02:25:54.880Z,10.55
2019-01-10T02:28:22.335Z,11.95
2019-01-10T02:30:49.765Z,11.25
2019-01-10T02:33:17.243Z,11.00
2019-01-10T02:35:44.809Z,18.15
2019-01-10T02:38:12.167Z,13.53
2019-01-10T02:40:39.593Z,11.38
2019-01-10T02:43:06.918Z,12.45
2019-01-10T02:45:34.342Z,11.03
2019-01-10T02:48:01.776Z,15.58
2019-01-10T02:50:29.210Z,9.95
2019-01-10T02:52:56.699Z,13.83
2019-01-10T02:55:24.175Z,9.28
2019-01-10T02:57:51.504Z,10.10
2019-01-10T03:00:21.061Z,11.20
2019-01-10T03:02:48.417Z,11.08
2019-01-10T03:05:16.082Z,9.68
2019-01-10T03:07:43.525Z,21.45
2019-01-10T03:10:11.857Z,10.95
2019-01-10T03:12:39.283Z,11.28
2019-01-10T03:15:06.804Z,11.05
2019-01-10T03:17:34.386Z,14.47
2019-01-10T03:20:01.947Z,13.62
2019-01-10T03:22:29.401Z,15.95
2019-01-10T03:24:56.766Z,12.90
2019-01-10T03:27:24.232Z,11.80
2019-01-10T03:29:51.456Z,11.08
2019-01-10T03:32:19.018Z,11.75
2019-01-10T03:34:46.493Z,13.55
2019-01-10T03:37:14.048Z,18.87
2019-01-10T03:39:41.611Z,14.40
2019-01-10T03:42:09.092Z,11.40
2019-01-10T03:44:36.526Z,11.22
2019-01-10T03:47:04.083Z,15.25
2019-01-10T03:49:31.432Z,12.45
2019-01-10T03:51:58.869Z,13.65
2019-01-10T03:54:26.217Z,12.30
2019-01-10T03:56:53.652Z,11.28
2019-01-10T03:59:20.997Z,17.00
2019-01-10T04:01:48.453Z,10.45
2019-01-10T04:04:15.817Z,13.18
2019-01-10T04:06:43.184Z,10.35
2019-01-10T04:09:10.609Z,10.30
2019-01-10T04:11:37.945Z,12.45
2019-01-10T04:14:05.433Z,8.73
2019-01-10T04:16:32.918Z,16.55
2019-01-10T04:19:00.359Z,11.70
2019-01-10T04:21:27.725Z,12.88
2019-01-10T04:23:55.197Z,11.80
2019-01-10T04:26:22.587Z,12.10
2019-01-10T04:28:50.028Z,11.50
2019-01-10T04:31:17.423Z,13.20
2019-01-10T04:33:45.063Z,15.38
2019-01-10T04:36:12.521Z,14.73
2019-01-10T04:38:39.862Z,20.40
2019-01-10T04:41:07.253Z,14.03
2019-01-10T04:43:34.564Z,14.85
2019-01-10T04:46:02.101Z,12.73
2019-01-10T04:48:29.413Z,13.62
2019-01-10T04:50:56.909Z,12.78
2019-01-10T04:53:26.636Z,13.25
2019-01-10T04:55:53.637Z,13.13
2019-01-10T04:58:21.032Z,15.50
2019-01-10T05:00:48.529Z,13.40
2019-01-10T05:03:15.903Z,15.40
2019-01-10T05:05:43.326Z,12.30
2019-01-10T05:08:10.604Z,14.45
2019-01-10T05:10:38.207Z,16.15
2019-01-10T05:13:05.638Z,14.00
2019-01-10T05:15:32.990Z,17.48
2019-01-10T05:18:00.494Z,17.02
2019-01-10T05:20:27.964Z,14.58
2019-01-10T05:22:55.481Z,15.53
2019-01-10T05:25:22.838Z,15.38
2019-01-10T05:27:50.254Z,16.35
2019-01-10T05:30:22.559Z,21.42
2019-01-10T05:32:50.114Z,21.20
2019-01-10T05:35:17.451Z,15.88
2019-01-10T05:37:44.908Z,19.82
2019-01-10T05:40:12.269Z,17.80
2019-01-10T05:42:39.726Z,26.80
2019-01-10T05:45:08.730Z,20.10
2019-01-10T05:47:36.213Z,15.50
2019-01-10T05:50:04.742Z,17.73
2019-01-10T05:52:32.363Z,13.13
2019-01-10T05:54:59.706Z,19.95
2019-01-10T05:57:27.122Z,13.38
2019-01-10T05:59:54.558Z,14.70
2019-01-10T06:02:21.919Z,14.33
2019-01-10T06:04:49.415Z,16.23
2019-01-10T06:07:16.786Z,15.65
2019-01-10T06:09:44.099Z,19.98
2019-01-10T06:12:11.490Z,16.60
2019-01-10T06:14:38.937Z,14.35
2019-01-10T06:17:06.286Z,21.17
2019-01-10T06:19:33.729Z,14.23
2019-01-10T06:22:01.080Z,21.85
2019-01-10T06:24:28.559Z,15.80
2019-01-10T06:26:56.038Z,13.90
2019-01-10T06:29:23.527Z,16.12
2019-01-10T06:31:50.904Z,15.18
2019-01-10T06:34:18.468Z,17.48
2019-01-10T06:36:45.797Z,18.20
2019-01-10T06:39:13.221Z,17.45
2019-01-10T06:41:40.661Z,17.90
2019-01-10T06:44:08.371Z,13.70
2019-01-10T06:46:35.794Z,17.77
2019-01-10T06:49:03.493Z,16.12
2019-01-10T06:51:30.856Z,19.25
2019-01-10T06:53:58.215Z,17.37
2019-01-10T06:56:25.745Z,20.85
2019-01-10T06:58:53.185Z,16.23
2019-01-10T07:01:20.613Z,17.67
2019-01-10T07:03:48.012Z,15.68
2019-01-10T07:06:15.512Z,20.30
2019-01-10T07:08:42.897Z,19.52
2019-01-10T07:11:10.305Z,24.80
2019-01-10T07:13:37.681Z,18.70
2019-01-10T07:16:05.084Z,24.23
2019-01-10T07:18:32.542Z,16.30
2019-01-10T07:21:00.056Z,19.92
2019-01-10T07:23:27.376Z,18.45
2019-01-10T07:25:55.281Z,16.90
2019-01-10T07:28:23.121Z,14.90
2019-01-10T07:30:51.029Z,17.37
2019-01-10T07:33:18.550Z,17.35
2019-01-10T07:35:52.281Z,20.23
2019-01-10T07:38:19.656Z,18.12
2019-01-10T07:40:47.132Z,17.75
2019-01-10T07:43:19.108Z,19.42
2019-01-10T07:45:46.665Z,18.48
2019-01-10T07:48:14.072Z,19.00
2019-01-10T07:50:41.512Z,17.42
2019-01-10T07:53:09.384Z,20.02
2019-01-10T07:55:37.928Z,24.10
2019-01-10T07:58:05.564Z,18.02
2019-01-10T08:00:32.893Z,17.50
2019-01-10T08:03:00.983Z,17.05
2019-01-10T08:05:28.480Z,20.68
2019-01-10T08:07:55.977Z,17.27
2019-01-10T08:10:23.336Z,14.85
2019-01-10T08:12:50.765Z,18.80
2019-01-10T08:15:19.548Z,15.10
2019-01-10T08:17:47.000Z,18.90
2019-01-10T08:20:14.633Z,21.25
2019-01-10T08:22:42.210Z,18.00
2019-01-10T08:25:09.756Z,20.57
2019-01-10T08:27:37.075Z,14.25
2019-01-10T08:30:07.917Z,18.67
2019-01-10T08:32:35.357Z,22.82
2019-01-10T08:35:03.559Z,23.90
2019-01-10T08:37:30.925Z,22.02
2019-01-10T08:39:58.395Z,19.05
2019-01-10T08:42:25.724Z,16.70
2019-01-10T08:44:53.192Z,18.87
2019-01-10T08:47:20.613Z,17.70
2019-01-10T08:49:48.052Z,16.37
2019-01-10T08:52:15.587Z,19.23
2019-01-10T08:54:43.097Z,19.75
2019-01-10T08:57:10.449Z,16.77
2019-01-10T08:59:37.872Z,20.92
2019-01-10T09:02:05.283Z,19.20
2019-01-10T09:04:32.707Z,18.60
2019-01-10T09:07:00.160Z,18.90
2019-01-10T09:09:27.604Z,23.90
2019-01-10T09:11:55.041Z,15.43
2019-01-10T09:14:22.375Z,22.32
2019-01-10T09:16:49.911Z,15.15
2019-01-10T09:19:17.372Z,16.27
2019-01-10T09:21:44.808Z,16.77
2019-01-10T09:24:12.178Z,16.45
2019-01-10T09:26:39.754Z,15.48
2019-01-10T09:29:07.213Z,18.37
2019-01-10T09:31:34.632Z,17.45
2019-01-10T09:34:02.546Z,16.73
2019-01-10T09:36:29.982Z,15.45
2019-01-10T09:38:57.337Z,17.23
2019-01-10T09:41:24.924Z,20.90
2019-01-10T09:43:52.451Z,19.12
2019-01-10T09:46:19.907Z,25.02
2019-01-10T09:48:47.180Z,22.50
2019-01-10T09:51:14.761Z,18.60
2019-01-10T09:53:42.176Z,16.50
2019-01-10T09:56:09.409Z,17.15
2019-01-10T09:58:36.764Z,18.65
2019-01-10T10:01:04.138Z,21.12
2019-01-10T10:03:31.720Z,20.23
2019-01-10T10:06:07.337Z,18.98
2019-01-10T10:08:28.495Z,16.90
2019-01-10T10:10:55.844Z,16.27
2019-01-10T10:13:23.393Z,19.70
2019-01-10T10:15:52.819Z,24.23
2019-01-10T10:18:20.283Z,21.42
2019-01-10T10:20:47.705Z,17.52
2019-01-10T10:23:15.257Z,14.05
2019-01-10T10:25:42.658Z,14.05
2019-01-10T10:28:10.188Z,16.87
2019-01-10T10:30:37.567Z,17.27
2019-01-10T10:33:05.286Z,14.53
2019-01-10T10:35:32.736Z,18.23
2019-01-10T10:38:02.640Z,15.05
2019-01-10T10:40:30.033Z,17.75
2019-01-10T10:42:57.412Z,17.25
2019-01-10T10:45:24.832Z,15.75
2019-01-10T10:47:52.284Z,17.75
2019-01-10T10:50:27.240Z,19.25
2019-01-10T10:52:54.614Z,19.20
2019-01-10T10:55:22.040Z,17.95
2019-01-10T10:57:49.416Z,22.93
2019-01-10T11:00:25.407Z,18.30
2019-01-10T11:02:52.823Z,19.32
2019-01-10T11:05:20.170Z,19.52
2019-01-10T11:07:47.573Z,17.02
2019-01-10T11:10:16.388Z,20.02
2019-01-10T11:12:43.767Z,18.25
2019-01-10T11:15:11.229Z,18.07
2019-01-10T11:17:38.731Z,13.70
2019-01-10T11:20:11.679Z,16.02
2019-01-10T11:22:39.142Z,14.58
2019-01-10T11:25:10.472Z,17.70
2019-01-10T11:27:38.128Z,15.48
2019-01-10T11:30:07.193Z,19.42
2019-01-10T11:32:34.665Z,15.95
2019-01-10T11:35:02.142Z,15.93
2019-01-10T11:37:29.655Z,14.53
2019-01-10T11:39:57.144Z,20.72
2019-01-10T11:42:24.557Z,14.80
2019-01-10T11:44:52.108Z,15.50
2019-01-10T11:47:19.576Z,14.87
2019-01-10T11:49:46.937Z,12.15
2019-01-10T11:52:14.420Z,16.65
2019-01-10T11:54:41.768Z,12.70
2019-01-10T11:57:09.179Z,12.30
2019-01-10T11:59:36.554Z,14.43
2019-01-10T12:02:04.193Z,16.12
2019-01-10T12:04:31.612Z,15.65
2019-01-10T12:06:59.043Z,15.98
2019-01-10T12:09:26.489Z,12.58
2019-01-10T12:11:53.922Z,14.53
2019-01-10T12:14:21.301Z,14.75
2019-01-10T12:16:48.698Z,11.25
2019-01-10T12:19:16.069Z,12.58
2019-01-10T12:21:43.612Z,16.85
2019-01-10T12:24:10.982Z,18.05
2019-01-10T12:26:38.429Z,12.73
2019-01-10T12:29:05.792Z,15.10
2019-01-10T12:31:33.248Z,16.73
2019-01-10T12:34:00.691Z,12.20
2019-01-10T12:36:28.200Z,11.70
2019-01-10T12:38:58.297Z,11.00
2019-01-10T12:41:25.794Z,13.18
2019-01-10T12:43:53.171Z,11.12
2019-01-10T12:46:22.445Z,13.32
2019-01-10T12:48:49.918Z,12.68
2019-01-10T12:51:17.387Z,15.68
2019-01-10T12:53:44.822Z,13.03
2019-01-10T12:56:12.216Z,11.30
2019-01-10T12:58:39.640Z,10.00
2019-01-10T13:01:07.008Z,12.50
2019-01-10T13:03:34.596Z,11.80
2019-01-10T13:06:01.992Z,12.07
2019-01-10T13:08:29.436Z,11.50
2019-01-10T13:10:56.801Z,11.70
2019-01-10T13:13:24.303Z,10.53
2019-01-10T13:15:51.682Z,14.58
2019-01-10T13:18:19.115Z,11.10
2019-01-10T13:20:46.526Z,14.03
2019-01-10T13:23:13.896Z,10.75
2019-01-10T13:25:41.342Z,10.65
2019-01-10T13:28:08.822Z,9.75
2019-01-10T13:30:36.147Z,9.45
2019-01-10T13:33:08.391Z,10.60
2019-01-10T13:35:39.556Z,9.20
2019-01-10T13:38:07.016Z,10.88
2019-01-10T13:40:40.214Z,9.78
2019-01-10T13:43:07.728Z,17.62
2019-01-10T13:45:35.279Z,9.28
2019-01-10T13:48:02.671Z,12.20
2019-01-10T13:50:31.009Z,10.60
2019-01-10T13:52:58.464Z,12.20
2019-01-10T13:55:25.913Z,11.22
2019-01-10T13:57:53.441Z,11.38
2019-01-10T14:00:22.975Z,12.07
2019-01-10T14:02:50.387Z,11.28
2019-01-10T14:05:18.189Z,13.93
2019-01-10T14:07:45.968Z,14.28
2019-01-10T14:10:14.405Z,11.50
2019-01-10T14:12:41.840Z,12.65
2019-01-10T14:15:11.508Z,13.08
2019-01-10T14:17:39.026Z,10.78
2019-01-10T14:20:07.447Z,10.20
2019-01-10T14:22:35.018Z,11.35
2019-01-10T14:25:02.506Z,9.25
2019-01-10T14:27:29.988Z,13.08
2019-01-10T14:29:57.358Z,9.48
2019-01-10T14:32:24.901Z,10.85
2019-01-10T14:34:52.447Z,14.25
2019-01-10T14:37:19.985Z,10.72
2019-01-10T14:39:47.432Z,9.93
2019-01-10T14:42:14.891Z,8.83
2019-01-10T14:44:42.256Z,11.88
2019-01-10T14:47:09.693Z,10.45
2019-01-10T14:49:37.098Z,12.30
2019-01-10T14:52:07.177Z,10.13
2019-01-10T14:54:34.632Z,11.38
2019-01-10T14:57:02.000Z,9.33
2019-01-10T14:59:29.509Z,8.90
2019-01-10T15:01:56.891Z,11.10
2019-01-10T15:04:24.421Z,8.40
2019-01-10T15:06:51.869Z,8.65
2019-01-10T15:09:19.345Z,9.75
2019-01-10T15:11:47.290Z,8.83
2019-01-10T15:14:16.275Z,9.63
2019-01-10T15:16:43.919Z,8.23
2019-01-10T15:19:11.391Z,9.78
2019-01-10T15:21:38.721Z,8.00
2019-01-10T15:24:06.080Z,9.35
2019-01-10T15:26:33.524Z,8.15
2019-01-10T15:29:00.902Z,10.03
2019-01-10T15:31:28.389Z,8.20
2019-01-10T15:33:55.987Z,8.90
2019-01-10T15:36:23.430Z,8.10
2019-01-10T15:38:50.858Z,9.18
2019-01-10T15:41:18.284Z,8.85
2019-01-10T15:43:45.754Z,7.83
2019-01-10T15:46:13.217Z,7.72
2019-01-10T15:48:40.636Z,8.40
2019-01-10T15:51:08.153Z,8.60
2019-01-10T15:53:35.654Z,8.25
2019-01-10T15:56:03.259Z,10.35
2019-01-10T15:58:31.204Z,8.90
2019-01-10T16:00:58.922Z,9.40
2019-01-10T16:03:26.339Z,10.90
2019-01-10T16:05:53.851Z,7.75
2019-01-10T16:08:21.256Z,8.08
2019-01-10T16:10:48.861Z,9.45
2019-01-10T16:13:16.406Z,9.70
2019-01-10T16:15:43.805Z,11.00
2019-01-10T16:18:11.261Z,8.75
2019-01-10T16:20:38.619Z,8.88
2019-01-10T16:23:06.101Z,8.50
2019-01-10T16:25:33.570Z,8.60
2019-01-10T16:28:01.054Z,10.72
2019-01-10T16:30:30.112Z,9.00
2019-01-10T16:32:57.659Z,9.98
2019-01-10T16:35:25.117Z,12.53
2019-01-10T16:37:52.587Z,9.35
2019-01-10T16:40:20.021Z,7.92
2019-01-10T16:42:47.679Z,7.72
2019-01-10T16:45:18.115Z,7.67
2019-01-10T16:47:45.516Z,7.50
2019-01-10T16:50:13.329Z,6.90
2019-01-10T16:52:40.716Z,7.08
2019-01-10T16:55:08.877Z,7.70
2019-01-10T16:57:36.317Z,8.85
2019-01-10T17:00:06.732Z,7.37
2019-01-10T17:02:36.280Z,8.58
2019-01-10T17:05:04.122Z,9.88
2019-01-10T17:07:31.617Z,7.95
2019-01-10T17:09:59.139Z,7.10
2019-01-10T17:12:26.707Z,8.70
2019-01-10T17:14:54.181Z,7.78
2019-01-10T17:17:21.572Z,9.78
2019-01-10T17:19:48.965Z,10.00
2019-01-10T17:22:16.468Z,7.30
2019-01-10T17:24:43.848Z,7.33
2019-01-10T17:27:11.399Z,7.70
2019-01-10T17:29:38.948Z,8.38
2019-01-10T17:32:06.368Z,8.30
2019-01-10T17:34:33.962Z,9.20
2019-01-10T17:37:01.327Z,8.40
2019-01-10T17:39:28.791Z,8.85
2019-01-10T17:41:56.322Z,7.47
2019-01-10T17:44:23.822Z,8.45
2019-01-10T17:46:51.312Z,7.12
2019-01-10T17:49:18.746Z,8.50
2019-01-10T17:51:46.270Z,9.15
2019-01-10T17:54:13.788Z,8.40
2019-01-10T17:56:41.341Z,8.63
2019-01-10T17:59:08.829Z,9.40
2019-01-10T18:01:36.396Z,7.92
2019-01-10T18:04:04.417Z,9.43
2019-01-10T18:06:32.015Z,11.78
2019-01-10T18:08:59.652Z,9.45
2019-01-10T18:11:27.128Z,8.38
2019-01-10T18:13:54.794Z,9.03
2019-01-10T18:16:22.438Z,8.55
2019-01-10T18:18:50.065Z,9.18
2019-01-10T18:21:17.495Z,8.88
2019-01-10T18:23:44.999Z,8.60
2019-01-10T18:26:12.527Z,8.25
2019-01-10T18:28:40.084Z,7.60
2019-01-10T18:31:07.532Z,7.70
2019-01-10T18:33:35.195Z,8.00
2019-01-10T18:36:02.706Z,8.20
2019-01-10T18:38:30.370Z,8.65
2019-01-10T18:40:57.778Z,8.35
2019-01-10T18:43:25.299Z,7.90
2019-01-10T18:45:52.742Z,8.13
2019-01-10T18:48:20.473Z,7.00
2019-01-10T18:50:48.110Z,8.53
2019-01-10T18:53:15.747Z,7.70
2019-01-10T18:55:43.178Z,7.75
2019-01-10T18:58:10.874Z,8.30
2019-01-10T19:00:39.369Z,8.80
2019-01-10T19:03:07.054Z,8.93
2019-01-10T19:05:37.614Z,7.90
2019-01-10T19:08:05.328Z,8.70
2019-01-10T19:10:33.682Z,10.28
2019-01-10T19:13:01.182Z,8.23
2019-01-10T19:15:32.330Z,7.92
2019-01-10T19:18:03.360Z,8.15
2019-01-10T19:20:29.457Z,9.03
2019-01-10T19:22:59.045Z,10.13
2019-01-10T19:25:26.850Z,12.98
2019-01-10T19:27:54.546Z,8.65
2019-01-10T19:30:27.383Z,8.38
2019-01-10T19:32:55.295Z,8.70
2019-01-10T19:35:22.888Z,10.30
2019-01-10T19:37:50.528Z,8.48
2019-01-10T19:40:18.984Z,8.03
2019-01-10T19:42:46.566Z,11.35
2019-01-10T19:45:15.859Z,8.15
2019-01-10T19:47:43.345Z,8.50
2019-01-10T19:50:13.487Z,8.48
2019-01-10T19:52:41.084Z,8.13
2019-01-10T19:55:09.532Z,8.78
2019-01-10T19:57:36.974Z,7.60
2019-01-10T20:00:07.980Z,11.53
2019-01-10T20:02:35.551Z,8.95
2019-01-10T20:05:03.387Z,9.95
2019-01-10T20:07:30.855Z,7.25
2019-01-10T20:09:59.773Z,12.78
2019-01-10T20:12:27.172Z,8.13
2019-01-10T20:14:54.708Z,7.78
2019-01-10T20:17:22.273Z,7.45
2019-01-10T20:19:49.842Z,9.43
2019-01-10T20:22:17.216Z,7.83
2019-01-10T20:24:44.835Z,8.58
2019-01-10T20:27:12.652Z,7.87
2019-01-10T20:29:40.752Z,8.03
2019-01-10T20:32:08.281Z,7.45
2019-01-10T20:34:35.963Z,8.25
2019-01-10T20:37:03.702Z,7.85
2019-01-10T20:39:31.227Z,7.55
2019-01-10T20:42:02.001Z,7.47
2019-01-10T20:44:28.053Z,9.03
2019-01-10T20:46:55.493Z,8.75
2019-01-10T20:49:23.025Z,12.15
2019-01-10T20:51:50.426Z,8.98
2019-01-10T20:54:17.849Z,8.95
2019-01-10T20:56:45.327Z,7.35
2019-01-10T20:59:12.978Z,7.70
2019-01-10T21:01:40.428Z,8.40
2019-01-10T21:04:07.899Z,9.23
2019-01-10T21:06:36.049Z,8.53
2019-01-10T21:09:12.856Z,8.60
2019-01-10T21:11:36.702Z,10.15
2019-01-10T21:14:04.673Z,9.03
2019-01-10T21:16:32.125Z,8.88
2019-01-10T21:18:59.568Z,8.70
2019-01-10T21:21:27.006Z,8.83
2019-01-10T21:23:54.494Z,8.10
2019-01-10T21:26:22.097Z,9.63
2019-01-10T21:28:49.521Z,8.90
2019-01-10T21:31:18.254Z,9.10
2019-01-10T21:33:45.664Z,11.08
2019-01-10T21:36:13.205Z,9.18
2019-01-10T21:38:40.643Z,9.58
2019-01-10T21:41:09.233Z,14.45
2019-01-10T21:43:36.772Z,11.40
2019-01-10T21:46:04.372Z,13.60
2019-01-10T21:48:36.820Z,13.93
2019-01-10T21:51:04.267Z,11.78
2019-01-10T21:53:32.797Z,11.28
2019-01-10T21:56:00.908Z,14.55
2019-01-10T21:58:28.442Z,12.25
2019-01-10T22:00:55.867Z,15.18
2019-01-10T22:03:23.472Z,15.53
2019-01-10T22:05:50.919Z,11.08
2019-01-10T22:08:18.454Z,13.00
2019-01-10T22:10:45.861Z,11.75
2019-01-10T22:13:13.401Z,11.65
2019-01-10T22:15:40.786Z,14.10
2019-01-10T22:18:08.341Z,11.78
2019-01-10T22:20:42.124Z,15.75
2019-01-10T22:23:12.442Z,11.03
2019-01-10T22:26:05.542Z,10.13
2019-01-10T22:28:38.951Z,10.68
2019-01-10T22:31:22.076Z,9.45
2019-01-10T22:33:53.468Z,12.88
2019-01-10T22:36:24.714Z,9.50
2019-01-10T22:38:52.101Z,12.05
2019-01-10T22:41:24.006Z,9.60
2019-01-10T22:43:51.414Z,9.43
2019-01-10T22:46:20.960Z,9.95
2019-01-10T22:48:49.386Z,9.43
2019-01-10T22:51:16.857Z,11.45
2019-01-10T22:53:44.305Z,9.85
2019-01-10T22:56:11.778Z,9.50
2019-01-10T22:58:39.182Z,10.63
2019-01-10T23:01:37.447Z,12.15
2019-01-10T23:04:05.453Z,10.10
2019-01-10T23:06:32.931Z,11.20
2019-01-10T23:09:01.410Z,10.40
2019-01-10T23:11:30.023Z,10.70
2019-01-10T23:14:01.622Z,13.80
2019-01-10T23:16:33.142Z,11.55
2019-01-10T23:19:00.989Z,10.48
2019-01-10T23:21:30.252Z,9.55
2019-01-10T23:24:06.928Z,11.28
2019-01-10T23:26:34.402Z,9.13
2019-01-10T23:29:01.774Z,10.78
2019-01-10T23:31:32.030Z,10.65
2019-01-10T23:34:10.220Z,9.58
2019-01-10T23:36:37.716Z,9.40
2019-01-10T23:39:21.606Z,10.70
2019-01-10T23:41:49.976Z,12.78
2019-01-10T23:44:17.718Z,10.98
2019-01-10T23:46:45.267Z,10.88
2019-01-10T23:49:12.838Z,11.38
2019-01-10T23:51:40.397Z,11.18
2019-01-10T23:54:07.948Z,11.60
2019-01-10T23:56:35.342Z,13.28
2019-01-10T23:59:03.012Z,14.07
